Airfield :
LOGIN :

Register | Disclaimer

   EN    FR    IT 

 










Legend :    VFR   Marginal VFR   IFR   Intensive IFR   Very Intensive IFR
Visi :
Ceiling :
>= 8 km
>= 3000ft
5 to 8 km
1000 to 3000 ft
1500m to 5 km
500 to 1000 ft
800 to 1500m
200 to 500 ft
< 800m
< 200 ft
Symbols :   Thunderstorms  Fog  Heavy snow  Heavy precipitations  Wind > 20 kt
SIGMETs :     Misc.  Thunderstorms  Icing  Turbulence  Mountain Waves  Volcanic Ashes






- Airport Elevation : 239 ft
- IATA code : VRN


LIPX - Villafranca Int. Verona

CURRENT METAR :
  • 152020Z 20006KT 9999 FEW040 SCT070 07/07 Q1004

EXPIRED METARs :
  • 151950Z 21007KT 9999 SCT035 BKN070 08/07 Q1004
  • 151920Z VRB02KT 9999 SCT035 BKN070 08/07 Q1004
  • 151850Z VRB02KT 9999 SCT035 BKN070 08/07 Q1003
  • 151820Z 28003KT 210V330 9999 FEW035 SCT070 08/07 Q1002
  • 151750Z VRB01KT 9999 FEW035 SCT070 07/06 Q1002

TAF TAF LIPX
Valid from the 15 at 18:00 until the 16 at 03:00 UTC


151700Z 1518/1603 30006KT 6000 BKN015 BKN040
TEMPO 1518/1520 4000 RA



MET'MAP, your aeronautical weather chart ! - Copyright ORBIFLY December 2007 - Disclaimer

ORBIFLY MET'MAP TEAM :

Programming & Development : Alexandra Zaïnal
Concept & Development : Baudouin d'Aumeries
Co-Development & Prog : Marc-Olivier Méhu
Technical & hardware support : Manuel Goepfert

Contact : metmap@orbifly.com




SOURCES & CREDITS :

   NOAA